createdAt,value
2022-09-03T00:01:52.578Z,19.50
2022-09-03T00:04:29.183Z,19.30
2022-09-03T00:07:03.872Z,19.40
2022-09-03T00:09:42.279Z,19.50
2022-09-03T00:12:22.461Z,19.60
2022-09-03T00:15:00.598Z,19.50
2022-09-03T00:17:36.077Z,19.40
2022-09-03T00:20:37.540Z,19.10
2022-09-03T00:23:08.632Z,19.20
2022-09-03T00:25:35.300Z,19.10
2022-09-03T00:28:06.216Z,19.20
2022-09-03T00:30:34.843Z,19.20
2022-09-03T00:33:10.648Z,19.10
2022-09-03T00:36:19.012Z,19.10
2022-09-03T00:38:45.988Z,19.00
2022-09-03T00:41:41.372Z,18.90
2022-09-03T00:44:45.332Z,19.10
2022-09-03T00:47:27.889Z,18.90
2022-09-03T00:50:31.360Z,18.90
2022-09-03T00:53:08.949Z,18.90
2022-09-03T00:55:56.966Z,18.90
2022-09-03T00:58:26.376Z,19.00
2022-09-03T01:00:53.144Z,18.90
2022-09-03T01:03:43.396Z,18.80
2022-09-03T01:06:20.150Z,18.80
2022-09-03T01:09:12.155Z,18.80
2022-09-03T01:11:59.365Z,18.60
2022-09-03T01:14:43.288Z,18.70
2022-09-03T01:17:27.782Z,18.60
2022-09-03T01:20:16.448Z,18.60
2022-09-03T01:23:04.070Z,18.60
2022-09-03T01:25:57.576Z,18.60
2022-09-03T01:28:48.924Z,18.60
2022-09-03T01:31:15.614Z,18.60
2022-09-03T01:34:15.149Z,18.70
2022-09-03T01:36:47.550Z,18.60
2022-09-03T01:39:28.596Z,18.60
2022-09-03T01:42:20.814Z,18.60
2022-09-03T01:45:01.709Z,18.60
2022-09-03T01:48:02.768Z,18.50
2022-09-03T01:50:48.933Z,18.50
2022-09-03T01:53:15.565Z,18.50
2022-09-03T01:56:16.181Z,18.50
2022-09-03T01:59:02.670Z,18.50
2022-09-03T02:01:45.788Z,18.60
2022-09-03T02:04:25.051Z,18.50
2022-09-03T02:06:53.348Z,18.50
2022-09-03T02:09:20.929Z,18.50
2022-09-03T02:11:59.479Z,18.40
2022-09-03T02:14:28.652Z,18.40
2022-09-03T02:16:58.250Z,18.40
2022-09-03T02:19:28.005Z,18.50
2022-09-03T02:21:56.796Z,18.40
2022-09-03T02:24:25.261Z,18.40
2022-09-03T02:26:53.490Z,18.40
2022-09-03T02:29:20.861Z,18.30
2022-09-03T02:31:47.541Z,18.30
2022-09-03T02:34:14.880Z,18.20
2022-09-03T02:36:47.311Z,18.20
2022-09-03T02:39:15.926Z,18.00
2022-09-03T02:41:43.883Z,18.10
2022-09-03T02:44:31.645Z,18.00
2022-09-03T02:47:01.880Z,18.00
2022-09-03T02:49:29.827Z,17.90
2022-09-03T02:52:12.243Z,17.90
2022-09-03T02:54:40.073Z,17.90
2022-09-03T02:57:12.060Z,17.90
2022-09-03T02:59:39.795Z,17.80
2022-09-03T03:02:06.599Z,17.80
2022-09-03T03:04:33.633Z,17.80
2022-09-03T03:07:00.343Z,17.80
2022-09-03T03:09:27.013Z,17.90
2022-09-03T03:11:55.402Z,17.90
2022-09-03T03:14:22.771Z,17.90
2022-09-03T03:16:50.250Z,17.80
2022-09-03T03:19:17.654Z,17.90
2022-09-03T03:21:44.607Z,17.90
2022-09-03T03:24:11.420Z,17.80
2022-09-03T03:26:38.114Z,17.90
2022-09-03T03:29:05.128Z,17.80
2022-09-03T03:31:32.813Z,17.80
2022-09-03T03:34:02.185Z,17.90
2022-09-03T03:36:31.994Z,17.90
2022-09-03T03:38:59.630Z,17.90
2022-09-03T03:41:30.025Z,17.80
2022-09-03T03:44:00.138Z,17.90
2022-09-03T03:46:31.172Z,17.80
2022-09-03T03:48:58.148Z,17.80
2022-09-03T03:51:24.804Z,17.80
2022-09-03T03:53:59.408Z,17.80
2022-09-03T03:56:28.830Z,17.70
2022-09-03T03:58:56.132Z,17.70
2022-09-03T04:01:25.414Z,17.70
2022-09-03T04:03:55.128Z,17.60
2022-09-03T04:06:23.555Z,17.50
2022-09-03T04:08:50.642Z,17.50
2022-09-03T04:11:19.712Z,17.60
2022-09-03T04:13:47.782Z,17.50
2022-09-03T04:16:18.188Z,17.40
2022-09-03T04:18:45.792Z,17.40
2022-09-03T04:21:15.124Z,17.30
2022-09-03T04:23:43.817Z,17.30
2022-09-03T04:26:12.771Z,17.30
2022-09-03T04:28:41.393Z,17.30
2022-09-03T04:31:10.861Z,17.20
2022-09-03T04:33:39.143Z,17.20
2022-09-03T04:36:20.985Z,17.20
2022-09-03T04:38:48.968Z,17.20
2022-09-03T04:41:24.956Z,17.20
2022-09-03T04:43:53.342Z,17.20
2022-09-03T04:46:21.299Z,17.10
2022-09-03T04:48:51.155Z,17.10
2022-09-03T04:51:20.927Z,17.20
2022-09-03T04:53:49.908Z,17.30
2022-09-03T04:56:26.149Z,17.40
2022-09-03T04:59:09.761Z,17.40
2022-09-03T05:01:39.002Z,17.40
2022-09-03T05:04:07.105Z,17.30
2022-09-03T05:06:34.690Z,17.20
2022-09-03T05:09:01.844Z,17.20
2022-09-03T05:11:29.342Z,17.00
2022-09-03T05:13:58.193Z,17.00
2022-09-03T05:16:26.518Z,17.00
2022-09-03T05:18:55.325Z,17.00
2022-09-03T05:21:22.729Z,17.10
2022-09-03T05:23:51.727Z,17.00
2022-09-03T05:26:29.796Z,17.00
2022-09-03T05:28:59.420Z,17.00
2022-09-03T05:31:28.484Z,16.90
2022-09-03T05:33:58.607Z,16.80
2022-09-03T05:36:30.505Z,16.80
2022-09-03T05:38:59.150Z,16.80
2022-09-03T05:41:27.176Z,16.80
2022-09-03T05:43:55.891Z,16.90
2022-09-03T05:46:28.013Z,17.00
2022-09-03T05:48:54.726Z,17.10
2022-09-03T05:51:21.511Z,17.00
2022-09-03T05:53:49.361Z,17.10
2022-09-03T05:56:24.440Z,17.10
2022-09-03T05:58:53.590Z,17.50
2022-09-03T06:01:29.181Z,18.00
2022-09-03T06:04:08.515Z,18.20
2022-09-03T06:06:38.762Z,18.00
2022-09-03T06:09:08.266Z,18.10
2022-09-03T06:11:37.426Z,18.30
2022-09-03T06:14:08.115Z,18.40
2022-09-03T06:16:38.859Z,18.30
2022-09-03T06:19:10.220Z,18.20
2022-09-03T06:21:40.913Z,18.00
2022-09-03T06:24:07.707Z,18.20
2022-09-03T06:26:34.434Z,18.40
2022-09-03T06:29:01.428Z,18.60
2022-09-03T06:31:28.228Z,18.80
2022-09-03T06:33:58.604Z,18.80
2022-09-03T06:36:28.791Z,18.80
2022-09-03T06:38:56.524Z,18.70
2022-09-03T06:41:26.003Z,18.80
2022-09-03T06:44:03.208Z,19.00
2022-09-03T06:46:35.658Z,19.00
2022-09-03T06:49:02.978Z,19.10
2022-09-03T06:51:32.936Z,19.30
2022-09-03T06:54:01.741Z,19.40
2022-09-03T06:56:28.621Z,19.50
2022-09-03T06:58:57.609Z,19.60
2022-09-03T07:01:31.553Z,19.70
2022-09-03T07:04:04.030Z,19.70
2022-09-03T07:06:40.336Z,19.70
2022-09-03T07:09:08.370Z,19.70
2022-09-03T07:11:36.043Z,19.70
2022-09-03T07:14:04.697Z,19.70
2022-09-03T07:16:36.757Z,19.80
2022-09-03T07:19:05.010Z,19.90
2022-09-03T07:21:37.105Z,20.00
2022-09-03T07:24:05.615Z,20.10
2022-09-03T07:26:34.922Z,20.30
2022-09-03T07:29:01.780Z,20.30
2022-09-03T07:31:31.971Z,20.30
2022-09-03T07:34:00.630Z,20.50
2022-09-03T07:36:30.535Z,20.40
2022-09-03T07:39:03.907Z,20.50
2022-09-03T07:41:33.083Z,20.70
2022-09-03T07:44:05.462Z,20.90
2022-09-03T07:46:34.343Z,20.80
2022-09-03T07:49:05.235Z,20.90
2022-09-03T07:51:35.696Z,21.10
2022-09-03T07:54:04.921Z,21.30
2022-09-03T07:56:31.577Z,21.20
2022-09-03T07:58:59.207Z,21.20
2022-09-03T08:01:28.611Z,21.40
2022-09-03T08:03:55.971Z,21.60
2022-09-03T08:06:25.814Z,21.50
2022-09-03T08:09:05.682Z,21.70
2022-09-03T08:11:36.004Z,21.60
2022-09-03T08:14:06.315Z,21.90
2022-09-03T08:16:36.700Z,22.20
2022-09-03T08:19:03.851Z,22.10
2022-09-03T08:21:30.817Z,22.30
2022-09-03T08:24:02.853Z,22.30
2022-09-03T08:26:32.078Z,22.50
2022-09-03T08:28:59.520Z,22.60
2022-09-03T08:31:28.207Z,22.70
2022-09-03T08:33:57.190Z,22.90
2022-09-03T08:36:32.137Z,23.00
2022-09-03T08:39:04.103Z,22.90
2022-09-03T08:41:52.517Z,23.10
2022-09-03T08:44:46.938Z,23.30
2022-09-03T08:47:44.094Z,23.30
2022-09-03T08:50:35.507Z,23.40
2022-09-03T08:53:13.454Z,23.30
2022-09-03T08:55:54.087Z,23.50
2022-09-03T08:58:25.477Z,23.60
2022-09-03T09:01:04.228Z,23.60
2022-09-03T09:03:43.408Z,23.80
2022-09-03T09:06:23.975Z,24.00
2022-09-03T09:09:04.915Z,24.20
2022-09-03T09:11:47.173Z,24.20
2022-09-03T09:14:37.448Z,24.30
2022-09-03T09:17:45.497Z,24.40
2022-09-03T09:20:19.640Z,24.40
2022-09-03T09:23:01.713Z,24.50
2022-09-03T09:25:31.612Z,24.70
2022-09-03T09:28:08.496Z,24.70
2022-09-03T09:30:35.865Z,24.70
2022-09-03T09:33:02.574Z,24.80
2022-09-03T09:35:29.220Z,25.00
2022-09-03T09:38:00.205Z,24.80
2022-09-03T09:40:34.163Z,24.90
2022-09-03T09:43:14.569Z,25.10
2022-09-03T09:45:46.085Z,25.20
2022-09-03T09:48:34.313Z,25.30
2022-09-03T09:51:13.260Z,25.60
2022-09-03T09:53:41.255Z,25.80
2022-09-03T09:56:08.545Z,25.80
2022-09-03T09:58:35.909Z,25.70
2022-09-03T10:01:15.790Z,25.90
2022-09-03T10:03:55.272Z,25.80
2022-09-03T10:06:45.826Z,25.90
2022-09-03T10:09:17.680Z,25.90
2022-09-03T10:11:50.776Z,26.00
2022-09-03T10:14:27.204Z,26.20
2022-09-03T10:17:04.323Z,26.20
2022-09-03T10:20:09.949Z,25.80
2022-09-03T10:22:52.488Z,26.00
2022-09-03T10:25:27.012Z,26.20
2022-09-03T10:27:54.532Z,26.20
2022-09-03T10:30:21.241Z,26.30
2022-09-03T10:33:10.098Z,26.20
2022-09-03T10:35:46.193Z,26.20
2022-09-03T10:38:33.003Z,26.30
2022-09-03T10:41:13.800Z,26.60
2022-09-03T10:44:09.129Z,26.50
2022-09-03T10:47:05.571Z,26.60
2022-09-03T10:49:44.516Z,26.90
2022-09-03T10:52:26.513Z,27.00
2022-09-03T10:55:15.077Z,27.00
2022-09-03T10:57:58.405Z,26.80
2022-09-03T11:00:27.844Z,26.70
2022-09-03T11:03:13.203Z,26.60
2022-09-03T11:05:48.016Z,26.70
2022-09-03T11:08:39.320Z,26.80
2022-09-03T11:11:27.732Z,26.90
2022-09-03T11:13:59.930Z,27.10
2022-09-03T11:16:32.254Z,27.30
2022-09-03T11:19:11.449Z,27.40
2022-09-03T11:21:44.078Z,27.40
2022-09-03T11:24:26.960Z,27.50
2022-09-03T11:27:19.984Z,27.50
2022-09-03T11:30:10.226Z,27.60
2022-09-03T11:32:40.773Z,27.60
2022-09-03T11:35:33.967Z,27.70
2022-09-03T11:38:06.249Z,27.80
2022-09-03T11:40:38.536Z,28.00
2022-09-03T11:43:27.324Z,28.00
2022-09-03T11:46:22.784Z,28.00
2022-09-03T11:48:49.444Z,28.20
2022-09-03T11:51:24.942Z,28.30
2022-09-03T11:53:57.709Z,28.40
2022-09-03T11:56:25.556Z,28.50
2022-09-03T11:59:16.280Z,28.40
2022-09-03T12:01:53.291Z,28.30
2022-09-03T12:04:31.943Z,28.10
2022-09-03T12:07:20.208Z,27.80
2022-09-03T12:09:56.798Z,28.00
2022-09-03T12:12:32.060Z,28.10
2022-09-03T12:15:41.031Z,28.20
2022-09-03T12:18:19.651Z,28.00
2022-09-03T12:20:48.407Z,28.00
2022-09-03T12:23:28.418Z,28.10
2022-09-03T12:25:55.423Z,28.20
2022-09-03T12:28:24.931Z,28.20
2022-09-03T12:30:54.694Z,28.30
2022-09-03T12:33:22.775Z,28.30
2022-09-03T12:36:01.008Z,28.20
2022-09-03T12:38:29.831Z,28.30
2022-09-03T12:43:52.061Z,28.10
2022-09-03T12:46:26.628Z,28.30
2022-09-03T12:51:57.466Z,28.50
2022-09-03T12:54:25.889Z,28.50
2022-09-03T12:56:58.311Z,28.40
2022-09-03T12:59:28.355Z,28.40
2022-09-03T13:02:00.631Z,28.30
2022-09-03T13:04:34.648Z,28.40
2022-09-03T13:07:27.337Z,28.70
2022-09-03T13:10:03.761Z,28.80
2022-09-03T13:12:44.458Z,28.40
2022-09-03T13:15:19.866Z,28.60
2022-09-03T13:18:24.953Z,28.80
2022-09-03T13:21:12.310Z,29.00
2022-09-03T13:24:27.417Z,29.20
2022-09-03T13:27:10.343Z,28.90
2022-09-03T13:29:43.573Z,28.90
2022-09-03T13:32:29.587Z,28.90
2022-09-03T13:35:40.297Z,29.00
2022-09-03T13:38:22.082Z,29.20
2022-09-03T13:41:19.832Z,29.20
2022-09-03T13:44:03.033Z,29.10
2022-09-03T13:46:35.970Z,29.10
2022-09-03T13:49:55.860Z,29.30
2022-09-03T13:52:35.401Z,29.20
2022-09-03T13:55:27.013Z,29.30
2022-09-03T13:58:01.863Z,29.10
2022-09-03T14:00:40.125Z,29.10
2022-09-03T14:03:16.050Z,29.20
2022-09-03T14:06:20.946Z,29.20
2022-09-03T14:09:06.167Z,29.20
2022-09-03T14:11:46.946Z,29.10
2022-09-03T14:14:46.084Z,29.10
2022-09-03T14:17:30.708Z,29.00
2022-09-03T14:20:04.460Z,29.00
2022-09-03T14:22:39.975Z,29.00
2022-09-03T14:25:15.361Z,28.90
2022-09-03T14:27:42.425Z,28.80
2022-09-03T14:30:33.669Z,28.70
2022-09-03T14:33:10.126Z,28.60
2022-09-03T14:35:43.464Z,28.70
2022-09-03T14:38:31.760Z,28.50
2022-09-03T14:41:01.421Z,28.60
2022-09-03T14:43:56.738Z,28.60
2022-09-03T14:46:58.768Z,28.70
2022-09-03T14:49:40.113Z,28.70
2022-09-03T14:52:12.632Z,28.60
2022-09-03T14:55:07.253Z,28.40
2022-09-03T14:57:36.769Z,28.40
2022-09-03T15:00:06.315Z,28.50
2022-09-03T15:02:53.050Z,28.50
2022-09-03T15:05:39.625Z,28.60
2022-09-03T15:08:32.001Z,28.60
2022-09-03T15:11:01.777Z,28.60
2022-09-03T15:13:45.059Z,28.50
2022-09-03T15:16:32.559Z,28.40
2022-09-03T15:19:42.630Z,28.30
2022-09-03T15:22:30.997Z,28.20
2022-09-03T15:24:58.305Z,28.20
2022-09-03T15:27:43.028Z,28.20
2022-09-03T15:30:20.968Z,28.20
2022-09-03T15:33:18.257Z,28.10
2022-09-03T15:36:13.462Z,28.10
2022-09-03T15:38:58.129Z,28.10
2022-09-03T15:41:29.911Z,28.00
2022-09-03T15:44:00.211Z,27.90
2022-09-03T15:46:54.575Z,28.00
2022-09-03T15:49:54.227Z,28.00
2022-09-03T15:52:41.860Z,27.90
2022-09-03T15:55:13.633Z,27.80
2022-09-03T15:57:45.421Z,27.90
2022-09-03T16:00:21.880Z,27.90
2022-09-03T16:03:11.265Z,27.80
2022-09-03T16:05:50.799Z,27.70
2022-09-03T16:08:33.970Z,27.80
2022-09-03T16:11:13.652Z,27.90
2022-09-03T16:14:02.899Z,27.70
2022-09-03T16:16:45.575Z,27.70
2022-09-03T16:19:30.803Z,27.70
2022-09-03T16:22:05.711Z,27.60
2022-09-03T16:24:44.462Z,27.60
2022-09-03T16:27:28.509Z,27.60
2022-09-03T16:30:02.253Z,27.70
2022-09-03T16:32:36.093Z,27.60
2022-09-03T16:35:27.901Z,27.50
2022-09-03T16:38:21.857Z,27.40
2022-09-03T16:40:57.557Z,27.40
2022-09-03T16:43:46.358Z,27.40
2022-09-03T16:46:24.748Z,27.40
2022-09-03T16:49:37.850Z,27.30
2022-09-03T16:52:19.973Z,27.30
2022-09-03T16:55:22.101Z,27.20
2022-09-03T16:58:13.565Z,27.20
2022-09-03T17:00:57.995Z,27.10
2022-09-03T17:03:52.397Z,27.20
2022-09-03T17:06:30.894Z,27.10
2022-09-03T17:09:38.052Z,27.10
2022-09-03T17:12:13.871Z,27.20
2022-09-03T17:15:03.832Z,27.10
2022-09-03T17:17:57.310Z,27.10
2022-09-03T17:20:29.719Z,27.10
2022-09-03T17:23:14.438Z,27.10
2022-09-03T17:26:19.217Z,27.10
2022-09-03T17:29:35.085Z,27.10
2022-09-03T17:32:28.680Z,27.00
2022-09-03T17:35:08.985Z,26.90
2022-09-03T17:37:53.477Z,26.80
2022-09-03T17:40:47.237Z,26.80
2022-09-03T17:43:26.272Z,26.80
2022-09-03T17:46:19.037Z,26.80
2022-09-03T17:49:17.456Z,26.70
2022-09-03T17:51:47.417Z,26.60
2022-09-03T17:54:21.899Z,26.60
2022-09-03T17:57:10.685Z,26.50
2022-09-03T17:59:56.616Z,26.40
2022-09-03T18:02:50.388Z,26.30
2022-09-03T18:05:28.272Z,26.20
2022-09-03T18:08:14.000Z,26.10
2022-09-03T18:11:01.112Z,26.00
2022-09-03T18:14:04.544Z,26.00
2022-09-03T18:16:37.598Z,25.80
2022-09-03T18:19:19.150Z,25.70
2022-09-03T18:22:07.661Z,25.60
2022-09-03T18:25:01.689Z,25.50
2022-09-03T18:28:04.909Z,25.40
2022-09-03T18:30:52.474Z,25.30
2022-09-03T18:33:42.929Z,25.20
2022-09-03T18:36:29.777Z,25.10
2022-09-03T18:39:32.985Z,25.00
2022-09-03T18:42:43.921Z,24.90
2022-09-03T18:46:24.894Z,24.80
2022-09-03T18:49:11.861Z,24.60
2022-09-03T18:52:19.217Z,24.50
2022-09-03T18:55:34.756Z,24.40
2022-09-03T18:58:44.996Z,24.30
2022-09-03T19:01:56.593Z,24.20
2022-09-03T19:05:23.241Z,24.10
2022-09-03T19:08:17.767Z,24.00
2022-09-03T19:11:10.269Z,23.90
2022-09-03T19:13:58.082Z,23.80
2022-09-03T19:16:55.580Z,23.80
2022-09-03T19:19:52.553Z,23.60
2022-09-03T19:22:48.302Z,23.50
2022-09-03T19:25:34.336Z,23.40
2022-09-03T19:28:32.919Z,23.40
2022-09-03T19:31:18.423Z,23.30
2022-09-03T19:34:21.875Z,23.20
2022-09-03T19:37:07.244Z,23.20
2022-09-03T19:40:12.148Z,23.10
2022-09-03T19:43:27.949Z,23.00
2022-09-03T19:46:34.878Z,22.90
2022-09-03T19:49:57.932Z,22.90
2022-09-03T19:53:15.457Z,22.80
2022-09-03T19:56:19.184Z,22.70
2022-09-03T19:59:15.184Z,22.60
2022-09-03T20:02:01.662Z,22.60
2022-09-03T20:04:52.062Z,22.50
2022-09-03T20:07:39.437Z,22.40
2022-09-03T20:10:22.698Z,22.40
2022-09-03T20:13:09.513Z,22.30
2022-09-03T20:15:43.898Z,22.30
2022-09-03T20:18:20.270Z,22.20
2022-09-03T20:21:04.738Z,22.10
2022-09-03T20:23:54.765Z,22.10
2022-09-03T20:26:40.295Z,22.00
2022-09-03T20:29:25.813Z,22.00
2022-09-03T20:32:29.411Z,21.90
2022-09-03T20:35:07.857Z,21.80
2022-09-03T20:38:05.760Z,21.80
2022-09-03T20:40:56.616Z,21.80
2022-09-03T20:43:56.413Z,21.70
2022-09-03T20:46:59.227Z,21.60
2022-09-03T20:49:47.856Z,21.50
2022-09-03T20:52:33.697Z,21.50
2022-09-03T20:55:26.344Z,21.40
2022-09-03T20:58:01.474Z,21.40
2022-09-03T21:00:45.097Z,21.40
2022-09-03T21:03:28.809Z,21.40
2022-09-03T21:06:13.664Z,21.40
2022-09-03T21:09:11.030Z,21.30
2022-09-03T21:11:40.668Z,21.30
2022-09-03T21:14:19.067Z,21.20
2022-09-03T21:16:54.551Z,21.20
2022-09-03T21:19:33.063Z,21.20
2022-09-03T21:22:15.317Z,21.10
2022-09-03T21:24:51.220Z,21.10
2022-09-03T21:27:24.170Z,21.00
2022-09-03T21:30:02.047Z,21.00
2022-09-03T21:33:11.543Z,21.00
2022-09-03T21:36:03.232Z,21.00
2022-09-03T21:38:33.233Z,20.90
2022-09-03T21:41:11.218Z,20.80
2022-09-03T21:43:46.783Z,20.70
2022-09-03T21:46:21.695Z,20.70
2022-09-03T21:49:01.042Z,20.70
2022-09-03T21:51:37.377Z,20.70
2022-09-03T21:54:25.367Z,20.60
2022-09-03T21:57:03.065Z,20.60
2022-09-03T22:00:17.775Z,20.50
2022-09-03T22:02:46.670Z,20.50
2022-09-03T22:05:14.823Z,20.40
2022-09-03T22:08:08.684Z,20.40
2022-09-03T22:11:12.572Z,20.40
2022-09-03T22:14:15.749Z,20.30
2022-09-03T22:16:49.596Z,20.30
2022-09-03T22:19:16.685Z,20.20
2022-09-03T22:21:59.542Z,20.20
2022-09-03T22:24:49.728Z,20.20
2022-09-03T22:28:02.029Z,20.20
2022-09-03T22:30:42.842Z,20.10
2022-09-03T22:33:39.434Z,20.10
2022-09-03T22:36:12.242Z,20.00
2022-09-03T22:39:02.248Z,20.00
2022-09-03T22:41:56.246Z,20.00
2022-09-03T22:44:59.423Z,19.90
2022-09-03T22:47:41.894Z,19.90
2022-09-03T22:50:38.833Z,19.80
2022-09-03T22:53:41.765Z,19.80
2022-09-03T22:56:11.507Z,19.80
2022-09-03T22:59:02.820Z,19.70
2022-09-03T23:01:35.032Z,19.70
2022-09-03T23:04:18.515Z,19.70
2022-09-03T23:06:57.400Z,19.70
2022-09-03T23:09:28.812Z,19.60
2022-09-03T23:12:02.567Z,19.60
2022-09-03T23:14:34.785Z,19.60
2022-09-03T23:17:13.236Z,19.50
2022-09-03T23:19:44.689Z,19.50
2022-09-03T23:22:17.885Z,19.40
2022-09-03T23:25:06.006Z,19.40
2022-09-03T23:27:44.129Z,19.40
2022-09-03T23:30:11.688Z,19.40
2022-09-03T23:32:38.373Z,19.40
2022-09-03T23:35:15.584Z,19.40
2022-09-03T23:38:13.402Z,19.40
2022-09-03T23:40:47.260Z,19.40
2022-09-03T23:43:39.515Z,19.40
2022-09-03T23:46:34.200Z,19.40
2022-09-03T23:49:21.682Z,19.40
2022-09-03T23:52:13.887Z,19.30
2022-09-03T23:54:47.209Z,19.30
2022-09-03T23:57:28.748Z,19.30
